Airfield :
LOGIN :

Register | Disclaimer

   EN    FR    IT 

 










Legend :    VFR   Marginal VFR   IFR   Intensive IFR   Very Intensive IFR
Visi :
Ceiling :
>= 8 km
>= 3000ft
5 to 8 km
1000 to 3000 ft
1500m to 5 km
500 to 1000 ft
800 to 1500m
200 to 500 ft
< 800m
< 200 ft
Symbols :   Thunderstorms  Fog  Heavy snow  Heavy precipitations  Wind > 20 kt
SIGMETs :     Misc.  Thunderstorms  Icing  Turbulence  Mountain Waves  Volcanic Ashes







- Airport Elevation : 56 ft
- IATA code : BZR
- Download approach charts


LFMU - Beziers / Vias

CURRENT METAR :
  • 262100Z AUTO 28004KT CAVOK 15/09 Q1021

EXPIRED METARs :
  • 262030Z AUTO 24005KT CAVOK 17/09 Q1021 NOSIG
  • 262000Z AUTO VRB02KT CAVOK 16/09 Q1021 NOSIG
  • 261930Z AUTO 27003KT CAVOK 17/09 Q1021 NOSIG
  • 261900Z AUTO 27004KT CAVOK 18/08 Q1020 NOSIG
  • 261830Z AUTO 25005KT CAVOK 20/09 Q1020 NOSIG

TAF TAF LFMU
Valid from the 26 at 15:00 until the 27 at 15:00 UTC


261400Z 2615/2715 17010KT CAVOK
TEMPO 2619/2709 VRB05KT
TEMPO 2704/2708 4000 BR BKN010
ATIS : +33 4 67 90 88 88
No reported NOTAMs for that airfield.



MET'MAP, your aeronautical weather chart ! - Copyright ORBIFLY December 2007 - Disclaimer

ORBIFLY MET'MAP TEAM :

Programming & Development : Alexandra Zaïnal
Concept & Development : Baudouin d'Aumeries
Co-Development & Prog : Marc-Olivier Méhu
Technical & hardware support : Manuel Goepfert

Contact : metmap@orbifly.com




SOURCES & CREDITS :

   NOAA